Flight Track Log - Related Links

Times and Time Zones

All times are in EDT time to prevent confusion due to time zone crossing. See the UAL118 flight status page for this flight to view local times or setup timezone preferences in your user account.

Time Position Orientation Groundspeed Altitude Reporting Facility
EDT Latitude Longitude Course Direction KTS MPH feet Rate Location/Type
Thu 04:00:56 AM 50.0280 8.5570 203° Southwest 174 200  Level FlightAware ADS-B
Thu 04:01:35 AM 50.0170 8.5110 250° West 178 205 1,800 2,451 Climbing FlightAware ADS-B
Thu 04:02:07 AM 50.0180 8.4700 272° West 184 212 2,900 1,808 Climbing FlightAware ADS-B
Thu 04:02:48 AM 50.0160 8.4130 267° West 213 245 4,000 1,652 Climbing FlightAware ADS-B
Thu 04:03:16 AM 50.0100 8.3680 258° West 240 276 4,800 1,395 Climbing FlightAware ADS-B
Thu 04:03:31 AM 50.0080 8.3440 263° West 252 290 5,000 2,091 Climbing FlightAware ADS-B
Thu 04:04:22 AM 50.0070 8.2550 269° West 272 313 7,100 2,747 Climbing FlightAware ADS-B
Thu 04:04:54 AM 50.0260 8.1940 296° West 273 314 8,800 2,710 Climbing FlightAware ADS-B
Thu 04:05:24 AM 50.0410 8.1400 293° West 284 327 9,900 1,890 Climbing FlightAware ADS-B
Thu 04:06:07 AM 50.0760 8.0610 305° West 316 364 11,100 1,714 Climbing FlightAware ADS-B
Thu 04:06:41 AM 50.1080 7.9990 309° West 343 395 12,100 1,881 Climbing FlightAware ADS-B
Thu 04:07:14 AM 50.1410 7.9340 308° West 355 409 13,200 2,583 Climbing FlightAware ADS-B
Thu 04:07:53 AM 50.1800 7.8580 309° West 349 402 15,200 2,609 Climbing FlightAware ADS-B
Thu 04:08:23 AM 50.2130 7.7920 308° West 361 415 16,200 1,938 Climbing FlightAware ADS-B
Thu 04:08:58 AM 50.2550 7.7290 316° Northwest 376 433 17,300 1,973 Climbing FlightAware ADS-B
Thu 04:09:36 AM 50.3110 7.6870 334° Northwest 386 444 18,600 2,132 Climbing FlightAware ADS-B
Thu 04:10:14 AM 50.3780 7.6420 337° Northwest 391 450 20,000 1,974 Climbing FlightAware ADS-B
Thu 04:10:52 AM 50.4410 7.5980 336° Northwest 401 461 21,100 1,760 Climbing FlightAware ADS-B
Thu 04:11:29 AM 50.5060 7.5530 336° Northwest 406 467 22,200 1,310 Climbing FlightAware ADS-B
Thu 04:12:19 AM 50.5850 7.4860 332° Northwest 415 478 23,000 1,000 Climbing FlightAware ADS-B
Thu 04:12:53 AM 50.6390 7.4300 327° Northwest 407 468 23,600 1,132 Climbing FlightAware ADS-B
Thu 04:13:12 AM 50.6681 7.4000 327° Northwest 412 474 24,000 1,552 Climbing FlightAware ADS-B
Thu 04:13:51 AM 50.7345 7.3308 327° Northwest 417 480 25,100 1,652 Climbing FlightAware ADS-B
Thu 04:14:21 AM 50.7829 7.2808 327° Northwest 423 487 25,900 1,475 Climbing FlightAware ADS-B
Thu 04:14:52 AM 50.8341 7.2277 327° Northwest 427 491 26,600 1,406 Climbing FlightAware ADS-B
Thu 04:15:25 AM 50.8926 7.1670 327° Northwest 431 496 27,400 1,313 Climbing FlightAware ADS-B (EDKL)
Thu 04:15:56 AM 50.9414 7.1148 326° Northwest 433 498 28,000 1,279 Climbing FlightAware ADS-B (EDKL)
Thu 04:16:26 AM 50.9845 7.0575 320° Northwest 433 498 28,700 1,279 Climbing FlightAware ADS-B (EDKL)
Thu 04:16:57 AM 51.0286 6.9859 314° West 436 502 29,300 1,082 Climbing FlightAware ADS-B (EDKL)
Thu 04:17:27 AM 51.0703 6.9169 314° West 439 505 29,800 1,015 Climbing FlightAware ADS-B (EDKL)
Thu 04:18:02 AM 51.1206 6.8331 314° West 445 512 30,400 1,059 Climbing FlightAware ADS-B
Thu 04:18:35 AM 51.1652 6.7580 313° West 448 516 31,000 1,429 Climbing FlightAware ADS-B
Thu 04:19:05 AM 51.2061 6.6890 313° West 441 507 31,900 1,600 Climbing FlightAware ADS-B
Thu 04:19:35 AM 51.2524 6.6108 313° West 439 505 32,600 1,355 Climbing FlightAware ADS-B (EDKL)
Thu 04:20:07 AM 51.2936 6.5408 313° West 437 503 33,300 1,182 Climbing FlightAware ADS-B (EDKL)
Thu 04:20:41 AM 51.3393 6.4632 313° West 434 499 33,900 656 Climbing FlightAware ADS-B
Thu 04:21:11 AM 51.3827 6.3894 313° West 436 502 34,000 95 Climbing FlightAware ADS-B
Thu 04:21:44 AM 51.4292 6.3097 313° West 437 503 34,000  Level FlightAware ADS-B (EDKL)
Thu 04:22:16 AM 51.4757 6.2299 313° West 438 504 34,000  Level FlightAware ADS-B (EDKL)
Thu 04:22:46 AM 51.5133 6.1628 312° West 437 503 34,000  Level FlightAware ADS-B (EDKL)
Thu 04:23:17 AM 51.5542 6.0838 310° West 436 502 34,000  Level FlightAware ADS-B (EDKL)
Thu 04:23:54 AM 51.5980 5.9950 308° West 436 502 34,000  Level FlightAware ADS-B
Thu 04:24:37 AM 51.6510 5.8850 308° West 437 503 34,000  Level FlightAware ADS-B
Thu 04:25:00 AM 51.6829 5.8187 308° West 436 502 34,000  Level FlightAware ADS-B (EDKL)
Thu 04:25:53 AM 51.7440 5.6930 308° West 437 503 34,000  Level FlightAware ADS-B
Thu 04:26:29 AM 51.7900 5.5970 308° West 436 502 34,000  Level FlightAware ADS-B
Thu 04:27:09 AM 51.8390 5.4930 307° West 435 501 34,000  Level FlightAware ADS-B
Thu 04:27:41 AM 51.8790 5.4110 308° West 434 499 34,000  Level FlightAware ADS-B
Thu 04:28:32 AM 51.9524 5.2883 308° West 456 525 34,000  Level FlightAware UK
Thu 04:28:51 AM 51.9640 5.2330 308° West 433 498 34,000  Level FlightAware ADS-B
Thu 04:29:31 AM 52.0130 5.1280 307° West 431 496 34,000  Level FlightAware ADS-B
Thu 04:29:59 AM 52.0470 5.0580 308° West 430 495 34,000  Level FlightAware ADS-B
Thu 04:30:39 AM 52.0950 4.9540 307° West 430 495 34,000  Level FlightAware ADS-B
Thu 04:31:41 AM 52.1700 4.7950 307° West 428 493 34,000  Level FlightAware ADS-B
Thu 04:31:44 AM 52.1837 4.7964 307° West 448 516 34,000  Level FlightAware UK
Thu 04:32:14 AM 52.2188 4.7191 307° West 448 516 34,000  Level FlightAware UK
Thu 04:32:19 AM 52.2130 4.7030 307° West 428 493 34,000  Level FlightAware ADS-B
Thu 04:32:56 AM 52.2683 4.6117 307° West 448 516 34,000  Level FlightAware UK
Thu 04:33:03 AM 52.2670 4.5870 307° West 427 491 34,000  Level FlightAware ADS-B
Thu 04:33:41 AM 52.3130 4.4870 307° West 427 491 34,000  Level FlightAware ADS-B
Thu 04:33:43 AM 52.3260 4.4898 307° West 448 516 34,000  Level FlightAware UK
Thu 04:34:11 AM 52.3490 4.4090 307° West 427 491 34,000  Level FlightAware ADS-B
Thu 04:34:39 AM 52.3820 4.3390 308° West 426 490 34,000  Level FlightAware ADS-B
Thu 04:35:13 AM 52.4321 4.2583 308° West 450 518 34,000  Level FlightAware UK
Thu 04:35:16 AM 52.4250 4.2450 308° West 427 491 34,000  Level FlightAware ADS-B
Thu 04:36:11 AM 52.4900 4.1010 307° West 426 490 34,000  Level FlightAware ADS-B
Thu 04:36:51 AM 52.5380 3.9960 307° West 425 489 34,000  Level FlightAware ADS-B
Thu 04:37:23 AM 52.5740 3.9160 307° West 425 489 34,000  Level FlightAware ADS-B
Thu 04:37:55 AM 52.6130 3.8310 307° West 425 489 34,000  Level FlightAware ADS-B
Thu 04:39:01 AM 52.6969 3.6685 307° West 448 516 34,000  Level FlightAware UK
Thu 04:39:05 AM 52.6940 3.6490 307° West 425 489 34,000  Level FlightAware ADS-B
Thu 04:39:37 AM 52.7386 3.5746 307° West 452 520 34,000  Level FlightAware UK
Thu 04:39:37 AM 52.7300 3.5690 307° West 425 489 34,000  Level FlightAware ADS-B
Thu 04:40:01 AM 52.7560 3.5110 307° West 426 490 34,000  Level FlightAware ADS-B
Thu 04:40:07 AM 52.7733 3.4963 307° West 454 522 34,000  Level FlightAware UK
Thu 04:40:30 AM 52.7936 3.4260 306° West 426 490 34,000  Level FlightAware ADS-B
Thu 04:41:05 AM 52.8205 3.3653 306° West 426 490 34,000  Level FlightAware ADS-B
Thu 04:41:49 AM 52.8853 3.2242 306° West 452 520 34,000  Level FlightAware UK
Thu 04:41:59 AM 52.8870 3.1880 306° West 419 482 34,000  Level FlightAware ADS-B
Thu 04:42:36 AM 52.9120 3.0820 291° West 416 479 34,000  Level FlightAware ADS-B
Thu 04:43:11 AM 52.9370 2.9760 291° West 415 478 34,000  Level FlightAware ADS-B
Thu 04:43:48 AM 52.9610 2.8650 291° West 413 475 34,000  Level FlightAware ADS-B
Thu 04:43:49 AM 52.9679 2.8679 291° West 454 522 34,000  Level FlightAware UK
Thu 04:44:31 AM 52.9900 2.7390 291° West 413 475 34,000  Level FlightAware ADS-B
Thu 04:45:05 AM 53.0110 2.6410 290° West 410 472 34,000  Level FlightAware ADS-B
Thu 04:45:37 AM 53.0330 2.5440 291° West 406 467 34,000  Level FlightAware ADS-B
Thu 04:46:10 AM 53.0530 2.4520 291° West 404 465 34,000  Level FlightAware ADS-B
Thu 04:46:13 AM 53.0610 2.4442 291° West 454 522 34,000  Level FlightAware UK
Thu 04:46:42 AM 53.0753 2.3497 290° West 401 461 34,000  Level FlightAware ADS-B (EGLC / LCY)
Thu 04:47:13 AM 53.0940 2.2639 290° West 399 459 34,000  Level FlightAware ADS-B (EGLC / LCY)
Thu 04:47:43 AM 53.1136 2.1739 290° West 396 456 34,000  Level FlightAware ADS-B
Thu 04:48:23 AM 53.1378 2.0614 290° West 395 455 34,000  Level FlightAware ADS-B
Thu 04:48:53 AM 53.1562 1.9758 290° West 395 455 34,000  Level FlightAware ADS-B (EGLC / LCY)
Thu 04:49:26 AM 53.1766 1.8798 290° West 395 455 34,000  Level FlightAware ADS-B
Thu 04:49:59 AM 53.1961 1.7876 290° West 395 455 34,000  Level FlightAware ADS-B
Thu 04:50:06 AM 53.1663 1.9284 109° East 395 455 34,000  Level FlightAware ADS-B
Thu 04:50:30 AM 53.2152 1.6982 290° West 395 455 34,000  Level FlightAware ADS-B
Thu 04:50:43 AM 53.2226 1.6627 289° West 396 456 34,000  Level FlightAware ADS-B
Thu 04:51:01 AM 53.2339 1.6091 289° West 396 456 34,000  Level FlightAware ADS-B
Thu 04:51:17 AM 53.2423 1.5688 289° West 397 457 34,000  Level FlightAware ADS-B
Thu 04:51:33 AM 53.2531 1.5170 289° West 397 457 34,000  Level FlightAware ADS-B
Thu 04:51:52 AM 53.2640 1.4655 289° West 398 458 34,000  Level FlightAware ADS-B
Thu 04:52:05 AM 53.2723 1.4245 289° West 398 458 34,000  Level FlightAware ADS-B
Thu 04:52:36 AM 53.2910 1.3344 289° West 400 460 34,000  Level FlightAware ADS-B
Thu 04:52:46 AM 53.2974 1.3041 289° West 399 459 34,000  Level FlightAware ADS-B
Thu 04:53:07 AM 53.3098 1.2438 289° West 402 463 34,000  Level FlightAware ADS-B
Thu 04:53:17 AM 53.3158 1.2146 289° West 402 463 34,000  Level FlightAware ADS-B
Thu 04:53:37 AM 53.3280 1.1554 289° West 403 464 34,000  Level FlightAware ADS-B
Thu 04:54:07 AM 53.3414 1.0895 289° West 404 465 34,000  Level FlightAware ADS-B
Thu 04:54:38 AM 53.3647 0.9757 289° West 405 466 34,000  Level FlightAware ADS-B
Thu 04:55:24 AM 53.3952 0.8455 289° West 454 522 34,000  Level FlightAware UK
Thu 04:55:38 AM 53.4002 0.7994 289° West 404 465 34,000  Level FlightAware ADS-B
Thu 04:56:08 AM 53.4179 0.7112 289° West 405 466 34,000  Level FlightAware ADS-B
Thu 04:56:44 AM 53.4394 0.6034 289° West 405 466 34,000  Level FlightAware ADS-B
Thu 04:56:50 AM 53.4428 0.5855 288° West 404 465 34,000  Level FlightAware ADS-B
Thu 04:57:14 AM 53.4574 0.5127 289° West 404 465 34,000  Level FlightAware ADS-B
Thu 04:57:29 AM 53.4662 0.4683 288° West 403 464 34,000  Level FlightAware ADS-B
Thu 04:57:40 AM 53.4727 0.4363 289° West 405 466 34,000  Level FlightAware ADS-B
Thu 04:57:50 AM 53.4792 0.4116 294° West 408 470 34,000  Level FlightAware ADS-B
Thu 04:57:51 AM 53.4806 0.4065 295° West 407 468 34,000  Level FlightAware ADS-B
Thu 04:58:13 AM 53.5022 0.3445 300° West 412 474 34,000  Level FlightAware ADS-B
Thu 04:58:20 AM 53.5082 0.3297 304° West 413 475 34,000  Level FlightAware ADS-B
Thu 04:58:44 AM 53.5360 0.2640 305° West 413 475 34,000  Level FlightAware ADS-B
Thu 04:59:00 AM 53.5535 0.2236 306° West 413 475 34,000  Level FlightAware ADS-B
Thu 04:59:15 AM 53.5705 0.1843 306° West 412 474 34,000  Level FlightAware ADS-B
Thu 04:59:30 AM 53.5881 0.1440 306° West 412 474 34,000  Level FlightAware ADS-B
Thu 04:59:50 AM 53.6100 0.0927 306° West 411 473 34,000  Level FlightAware ADS-B
Thu 05:00:01 AM 53.6224 0.0637 306° West 411 473 34,000  Level FlightAware ADS-B
Thu 05:00:22 AM 53.6451 0.0103 306° West 410 472 34,000  Level FlightAware ADS-B
Thu 05:00:32 AM 53.6542 -0.0110 306° West 409 471 34,000  Level FlightAware ADS-B
Thu 05:00:49 AM 53.6751 -0.0604 306° West 409 471 34,000  Level FlightAware ADS-B
Thu 05:00:51 AM 53.6763 -0.0630 307° West 409 471 34,000  Level FlightAware ADS-B
Thu 05:01:12 AM 53.7041 -0.1135 313° West 418 481 34,000  Level FlightAware ADS-B
Thu 05:01:14 AM 53.7074 -0.1181 320° Northwest 421 484 34,000  Level FlightAware ADS-B
Thu 05:01:25 AM 53.7249 -0.1413 322° Northwest 426 490 34,000  Level FlightAware ADS-B (EHTX)
Thu 05:01:33 AM 53.7296 -0.1470 325° Northwest 426 490 34,000  Level FlightAware ADS-B
Thu 05:02:05 AM 53.7882 -0.2146 326° Northwest 427 491 34,000  Level FlightAware ADS-B
Thu 05:02:35 AM 53.8382 -0.2714 326° Northwest 426 490 34,000  Level FlightAware ADS-B
Thu 05:03:05 AM 53.8840 -0.3239 326° Northwest 424 488 34,000  Level FlightAware ADS-B (EHTX)
Thu 05:03:35 AM 53.9343 -0.3818 326° Northwest 422 486 34,000  Level FlightAware ADS-B
Thu 05:04:08 AM 53.9861 -0.4419 326° Northwest 421 484 34,000  Level FlightAware ADS-B
Thu 05:04:35 AM 54.0265 -0.4887 326° Northwest 413 475 34,000  Level FlightAware ADS-B
Thu 05:05:10 AM 54.0812 -0.5526 326° Northwest 419 482 34,000  Level FlightAware ADS-B (EHTX)
Thu 05:05:41 AM 54.1365 -0.6171 326° Northwest 417 480 34,000  Level FlightAware ADS-B
Thu 05:05:47 AM 54.1457 -0.6288 323° Northwest 409 471 34,000  Level FlightAware ADS-B
Thu 05:06:20 AM 54.1914 -0.6939 320° Northwest 413 475 34,000  Level FlightAware ADS-B (EHTX)
Thu 05:06:53 AM 54.2426 -0.7699 319° Northwest 414 476 34,000  Level FlightAware ADS-B
Thu 05:07:12 AM 54.2693 -0.8091 320° Northwest 415 478 34,000  Level FlightAware ADS-B
Thu 05:07:46 AM 54.3188 -0.8810 320° Northwest 416 479 34,000  Level FlightAware ADS-B
Thu 05:08:25 AM 54.3758 -0.9651 319° Northwest 416 479 34,000  Level FlightAware ADS-B (EHTX)
Thu 05:09:03 AM 54.4280 -1.0420 319° Northwest 421 484 34,000  Level FlightAware ADS-B
Thu 05:09:15 AM 54.4488 -1.0721 320° Northwest 423 487 34,000  Level FlightAware ADS-B (EHTX)
Thu 05:09:45 AM 54.4937 -1.1387 319° Northwest 424 488 34,000  Level FlightAware ADS-B (EHTX)
Thu 05:10:17 AM 54.5408 -1.2091 319° Northwest 427 491 34,000  Level FlightAware ADS-B
Thu 05:10:47 AM 54.5919 -1.2789 319° Northwest 452 520 34,000  Level FlightAware UK
Thu 05:10:52 AM 54.5902 -1.2831 319° Northwest 428 493 34,000  Level FlightAware ADS-B (EHTX)
Thu 05:11:32 AM 54.6529 -1.3771 319° Northwest 429 494 34,000  Level FlightAware ADS-B (EHTX)
Thu 05:12:03 AM 54.6927 -1.4372 319° Northwest 428 493 34,000  Level FlightAware ADS-B (EHTX)
Thu 05:12:40 AM 54.7416 -1.5114 319° Northwest 427 491 34,000  Level FlightAware ADS-B (EHTX)
Thu 05:13:13 AM 54.8026 -1.6043 319° Northwest 427 491 34,000  Level FlightAware ADS-B (EHTX)
Thu 05:13:45 AM 54.8494 -1.6752 319° Northwest 427 491 34,000  Level FlightAware ADS-B
Thu 05:13:48 AM 54.8565 -1.6861 318° Northwest 427 491 34,000  Level FlightAware ADS-B
Thu 05:14:23 AM 54.9059 -1.7621 319° Northwest 427 491 34,000  Level FlightAware ADS-B (EHTX)
Thu 05:14:46 AM 54.9390 -1.8164 317° Northwest 425 489 34,000  Level FlightAware ADS-B
Thu 05:15:08 AM 54.9663 -1.8708 311° West 418 481 34,000  Level FlightAware ADS-B
Thu 05:15:43 AM 55.0042 -1.9661 305° West 414 476 34,000  Level FlightAware ADS-B (EHTX)
Thu 05:16:13 AM 55.0350 -2.0500 303° West 415 478 34,000  Level FlightAware ADS-B (EHTX)
Thu 05:16:43 AM 55.0660 -2.1355 302° West 413 475 34,000  Level FlightAware ADS-B (EHTX)
Thu 05:17:13 AM 55.0853 -2.1889 302° West 412 474 34,000  Level FlightAware ADS-B (EHTX)
Thu 05:17:32 AM 55.1155 -2.2735 302° West 409 471 34,000  Level FlightAware ADS-B
Thu 05:17:41 AM 55.1251 -2.3007 302° West 409 471 34,000  Level FlightAware ADS-B
Thu 05:18:14 AM 55.1565 -2.3908 301° West 409 471 34,000  Level FlightAware ADS-B (EHTX)
Thu 05:18:26 AM 55.1672 -2.4277 297° West 402 463 34,000  Level FlightAware ADS-B
Thu 05:19:01 AM 55.1956 -2.5333 295° West 404 465 34,000  Level FlightAware ADS-B (EHTX)
Thu 05:19:34 AM 55.2214 -2.6263 296° West 406 467 34,000  Level FlightAware ADS-B (EHTX)
Thu 05:19:43 AM 55.2293 -2.6544 296° West 406 467 34,000  Level FlightAware ADS-B
Thu 05:20:24 AM 55.2640 -2.7763 297° West 405 466 34,000  Level FlightAware ADS-B (EHTX)
Thu 05:21:02 AM 55.2956 -2.8867 297° West 403 464 34,000  Level FlightAware ADS-B (EHTX)
Thu 05:21:50 AM 55.3321 -3.0166 296° West 403 464 34,000  Level FlightAware ADS-B
Thu 05:22:27 AM 55.3761 -3.1451 296° West 454 522 34,000  Level FlightAware UK
Thu 05:22:38 AM 55.3740 -3.1680 296° West 402 463 34,000  Level FlightAware ADS-B
Thu 05:22:48 AM 55.3800 -3.1881 298° West 402 463 34,000  Level FlightAware ADS-B
Thu 05:23:45 AM 55.4258 -3.3537 296° West 402 463 34,000  Level FlightAware ADS-B
Thu 05:24:21 AM 55.4687 -3.4792 296° West 454 522 34,000  Level FlightAware UK
Thu 05:24:36 AM 55.4463 -3.4276 296° West 400 460 34,000  Level FlightAware ADS-B
Thu 05:25:09 AM 55.5065 -3.6195 296° West 454 522 34,000  Level FlightAware UK
Thu 05:25:12 AM 55.4960 -3.6130 296° West 395 455 34,000  Level FlightAware ADS-B
Thu 05:25:47 AM 55.5240 -3.7170 295° West 394 453 34,000  Level FlightAware ADS-B
Thu 05:26:12 AM 55.5416 -3.7831 295° West 392 451 34,000  Level FlightAware ADS-B
Thu 05:26:46 AM 55.5690 -3.8868 295° West 396 456 34,000 94 Level FlightAware ADS-B
Thu 05:27:16 AM 55.5936 -3.9793 295° West 398 458 34,100 522 Climbing FlightAware ADS-B
Thu 05:27:55 AM 55.5982 -3.9970 295° West 402 463 34,600 792 Climbing FlightAware ADS-B
Thu 05:28:09 AM 55.6470 -4.1456 295° West 450 518 34,800 545 Climbing FlightAware UK
Thu 05:28:39 AM 55.6708 -4.2364 295° West 456 525 35,000 636 Climbing FlightAware UK
Thu 05:29:15 AM 55.7001 -4.3469 295° West 462 532 35,500 857 Climbing FlightAware UK
Thu 05:29:35 AM 55.7015 -4.3916 295° West 412 474 35,800 517 Climbing FlightAware ADS-B
Thu 05:30:13 AM 55.7330 -4.5130 295° West 413 475 36,000 174 Climbing FlightAware ADS-B
Thu 05:30:44 AM 55.7580 -4.6110 295° West 415 478 36,000  Level FlightAware ADS-B
Thu 05:30:51 AM 55.7763 -4.6415 295° West 464 534 36,000  Level FlightAware UK
Thu 05:31:27 AM 55.8050 -4.7520 295° West 456 525 36,000  Level FlightAware UK
Thu 05:31:28 AM 55.7930 -4.7460 295° West 411 473 36,000  Level FlightAware ADS-B
Thu 05:32:05 AM 55.8210 -4.8560 294° West 411 473 36,000  Level FlightAware ADS-B
Thu 05:32:48 AM 55.8540 -4.9861 294° West 408 470 36,000  Level FlightAware ADS-B
Thu 05:33:27 AM 55.8982 -5.1192 294° West 460 529 36,000  Level FlightAware UK
Thu 05:33:36 AM 55.8930 -5.1400 294° West 404 465 36,000  Level FlightAware ADS-B
Thu 05:34:12 AM 55.9171 -5.2376 294° West 403 464 36,000  Level FlightAware ADS-B
Thu 05:34:50 AM 55.9480 -5.3630 294° West 401 461 36,000  Level FlightAware ADS-B
Thu 05:34:56 AM 55.9510 -5.3728 298° West 401 461 36,000  Level FlightAware ADS-B
Thu 05:34:57 AM 55.9662 -5.3901 294° West 452 520 36,000  Level FlightAware UK
Thu 05:35:36 AM 55.9830 -5.5010 298° West 403 464 36,000  Level FlightAware ADS-B
Thu 05:35:39 AM 55.9975 -5.5160 298° West 448 516 36,000  Level FlightAware UK
Thu 05:36:09 AM 56.0200 -5.6070 298° West 454 522 36,000  Level FlightAware UK
Thu 05:36:12 AM 56.0100 -5.6130 298° West 406 467 36,000  Level FlightAware ADS-B
Thu 05:36:57 AM 56.0440 -5.7500 294° West 407 468 36,000  Level FlightAware ADS-B
Thu 05:37:39 AM 56.0878 -5.8831 294° West 462 532 36,000  Level FlightAware UK
Thu 05:37:41 AM 56.0760 -5.8820 294° West 407 468 36,000  Level FlightAware ADS-B
Thu 05:38:30 AM 56.1140 -6.0370 294° West 407 468 36,000  Level FlightAware ADS-B
Thu 05:39:09 AM 56.1548 -6.1597 294° West 458 527 36,000  Level FlightAware UK
Thu 05:39:13 AM 56.1460 -6.1720 294° West 407 468 36,000  Level FlightAware ADS-B
Thu 05:39:45 AM 56.1812 -6.2699 294° West 454 522 36,000  Level FlightAware UK
Thu 05:39:54 AM 56.1760 -6.2980 294° West 406 467 36,000  Level FlightAware ADS-B
Thu 05:40:31 AM 56.2020 -6.4060 293° West 408 470 36,000  Level FlightAware ADS-B
Thu 05:41:04 AM 56.2270 -6.5130 293° West 409 471 36,000  Level FlightAware ADS-B
Thu 05:41:45 AM 56.2696 -6.6417 293° West 458 527 36,000  Level FlightAware UK
Thu 05:41:45 AM 56.2570 -6.6400 293° West 410 472 36,000  Level FlightAware ADS-B
Thu 05:42:15 AM 56.2917 -6.7355 293° West 458 527 36,000  Level FlightAware UK
Thu 05:42:24 AM 56.2860 -6.7640 293° West 411 473 36,000  Level FlightAware ADS-B
Thu 05:43:04 AM 56.3160 -6.8910 293° West 411 473 36,000  Level FlightAware ADS-B
Thu 05:43:45 AM 56.3571 -7.0173 293° West 456 525 36,000  Level FlightAware UK
Thu 05:43:45 AM 56.3450 -7.0160 293° West 412 474 36,000  Level FlightAware ADS-B
Thu 05:44:15 AM 56.3788 -7.1119 293° West 458 527 36,000  Level FlightAware UK
Thu 05:44:45 AM 56.4011 -7.2074 293° West 448 516 36,000  Level FlightAware UK
Thu 05:45:13 AM 56.4110 -7.3010 293° West 420 483 36,000  Level FlightAware ADS-B
Thu 05:45:15 AM 56.4230 -7.3033 293° West 448 516 36,000  Level FlightAware UK
Thu 05:45:45 AM 56.4450 -7.4005 293° West 462 532 36,000  Level FlightAware UK
Thu 05:46:15 AM 56.4675 -7.4997 292° West 468 539 36,000  Level FlightAware UK
Thu 05:46:17 AM 56.4580 -7.5120 292° West 430 495 36,000  Level FlightAware ADS-B
Thu 05:46:50 AM 56.4943 -7.6178 292° West 474 545 36,000  Level FlightAware UK
Thu 05:46:55 AM 56.4870 -7.6360 292° West 430 495 36,000  Level FlightAware ADS-B
Thu 05:47:29 AM 56.5120 -7.7480 292° West 429 494 36,000  Level FlightAware ADS-B
Thu 05:48:00 AM 56.5340 -7.8490 292° West 427 491 36,000  Level FlightAware ADS-B
Thu 05:48:39 AM 56.5630 -7.9770 292° West 421 484 36,000  Level FlightAware ADS-B
Thu 05:49:16 AM 56.5880 -8.0930 292° West 419 482 36,000  Level FlightAware ADS-B
Thu 05:49:20 AM 56.6039 -8.1116 292° West 474 545 36,000  Level FlightAware UK
Thu 05:49:50 AM 56.6253 -8.2091 292° West 472 543 36,000  Level FlightAware UK
Thu 05:50:04 AM 56.6240 -8.2540 292° West 415 478 36,000  Level FlightAware ADS-B
Thu 05:50:47 AM 56.6540 -8.3940 292° West 414 476 36,000  Level FlightAware ADS-B
Thu 05:50:50 AM 56.6677 -8.4034 292° West 466 536 36,000  Level FlightAware UK
Thu 05:51:20 AM 56.6885 -8.5003 292° West 466 536 36,000  Level FlightAware UK
Thu 05:51:29 AM 56.6840 -8.5310 292° West 412 474 36,000  Level FlightAware ADS-B
Thu 05:52:19 AM 56.7190 -8.6930 292° West 413 475 36,000  Level FlightAware ADS-B
Thu 05:52:20 AM 56.7300 -8.6937 292° West 458 527 36,000  Level FlightAware UK
Thu 05:52:50 AM 56.7505 -8.7901 292° West 460 529 36,000  Level FlightAware UK
Thu 05:52:50 AM 56.7400 -8.7910 292° West 412 474 36,000  Level FlightAware ADS-B
Thu 05:53:26 AM 56.7751 -8.9052 292° West 460 529 36,000  Level FlightAware UK
Thu 05:53:29 AM 56.7670 -8.9180 292° West 412 474 36,000  Level FlightAware ADS-B
Thu 05:54:29 AM 56.8080 -9.1120 291° West 413 475 36,000  Level FlightAware ADS-B
Thu 05:55:04 AM 56.8320 -9.2270 291° West 414 476 36,000  Level FlightAware ADS-B
Thu 05:55:40 AM 56.8560 -9.3430 291° West 414 476 36,000  Level FlightAware ADS-B
Thu 05:56:16 AM 56.8780 -9.4510 290° West 413 475 36,000  Level FlightAware ADS-B
Thu 05:56:55 AM 56.9060 -9.5850 291° West 414 476 36,000  Level FlightAware ADS-B
Thu 05:57:40 AM 56.9370 -9.7360 291° West 415 478 36,000  Level FlightAware ADS-B
Thu 05:58:20 AM 56.9630 -9.8670 290° West 416 479 36,000  Level FlightAware ADS-B
Thu 05:59:01 AM 56.9900 -9.9970 291° West 414 476 36,000  Level FlightAware ADS-B
Thu 05:59:40 AM 57.0220 -10.1280 294° West 415 478 36,000  Level FlightAware ADS-B
Thu 06:00:30 AM 57.0620 -10.2880 295° West 418 481 36,000  Level FlightAware ADS-B
Thu 06:01:08 AM 57.1010 -10.4070 301° West 424 488 36,000  Level FlightAware ADS-B
Thu 06:01:54 AM 57.1540 -10.5360 307° West 423 487 36,000  Level FlightAware ADS-B
Thu 06:02:38 AM 57.1960 -10.6810 298° West 420 483 36,000  Level FlightAware ADS-B
Thu 06:03:14 AM 57.2240 -10.7940 295° West 417 480 36,000  Level FlightAware ADS-B
Thu 06:03:30 AM 57.2360 -10.8430 294° West 416 479 36,000  Level FlightAware ADS-B
Thu 06:04:25 AM 57.2810 -11.0270 294° West 417 480 36,000  Level FlightAware ADS-B
Thu 06:04:59 AM 57.3070 -11.1380 293° West 417 480 36,000  Level FlightAware ADS-B
Thu 06:05:35 AM 57.3360 -11.2550 295° West 416 479 36,000  Level FlightAware ADS-B
Thu 06:05:55 AM 57.3510 -11.3190 294° West 416 479 36,000  Level FlightAware ADS-B
Thu 06:06:52 AM 57.3960 -11.5070 294° West 416 479 36,000  Level FlightAware ADS-B
Thu 06:07:19 AM 57.4120 -11.5790 292° West 417 480 36,000  Level FlightAware ADS-B
Thu 06:07:57 AM 57.4460 -11.7240 294° West 416 479 36,000  Level FlightAware ADS-B
Thu 06:08:22 AM 57.4660 -11.8070 294° West 417 480 36,000  Level FlightAware ADS-B
Thu 06:09:12 AM 57.5050 -11.9740 294° West 421 484 36,000  Level FlightAware ADS-B
Thu 06:09:48 AM 57.5300 -12.0850 293° West 422 486 36,000  Level FlightAware ADS-B
Thu 06:10:33 AM 57.5640 -12.2320 293° West 422 486 36,000  Level FlightAware ADS-B
Thu 06:10:59 AM 57.5810 -12.3070 293° West 422 486 36,000  Level FlightAware ADS-B
Thu 06:11:34 AM 57.6040 -12.4060 293° West 422 486 36,000  Level FlightAware ADS-B
Thu 06:12:30 AM 57.6400 -12.5660 293° West 422 486 36,000  Level FlightAware ADS-B
Thu 06:13:06 AM 57.6630 -12.6690 293° West 422 486 36,000  Level FlightAware ADS-B
Thu 06:13:55 AM 57.6950 -12.8090 293° West 422 486 36,000  Level FlightAware ADS-B
Thu 06:14:43 AM 57.7260 -12.9460 293° West 422 486 36,000  Level FlightAware ADS-B
Thu 06:15:44 AM 57.7660 -13.1210 293° West 422 486 36,000  Level FlightAware ADS-B
Thu 06:16:33 AM 57.7970 -13.2610 293° West 422 486 36,000  Level FlightAware ADS-B
Thu 06:17:09 AM 57.8210 -13.3640 294° West 422 486 36,000  Level FlightAware ADS-B
Thu 06:17:57 AM 57.8520 -13.5020 293° West 422 486 36,000  Level FlightAware ADS-B
Thu 06:18:33 AM 57.8750 -13.6060 293° West 422 486 36,000  Level FlightAware ADS-B
Thu 06:19:34 AM 57.9150 -13.7810 293° West 422 486 36,000  Level FlightAware ADS-B
Thu 06:20:10 AM 57.9380 -13.8850 293° West 422 486 36,000  Level FlightAware ADS-B
Thu 06:20:23 AM 57.9460 -13.9220 292° West 422 486 36,000  Level FlightAware ADS-B
Thu 06:23:00 AM 57.9567 -14.4674 272° West  Level Estimated
Thu 06:24:00 AM 57.9602 -14.6759 272° West  Level Estimated
Thu 06:25:00 AM 57.9634 -14.8844 272° West  Level Estimated
Thu 06:26:00 AM 57.9662 -15.0930 272° West  Level Estimated
Thu 06:27:00 AM 57.9687 -15.3016 271° West  Level Estimated
Thu 06:28:00 AM 57.9709 -15.5178 271° West  Level Estimated
Thu 06:29:00 AM 57.9727 -15.7339 271° West  Level Estimated
Thu 06:30:00 AM 57.9742 -15.9501 271° West  Level Estimated
Thu 06:31:00 AM 57.9753 -16.1663 271° West  Level Estimated
Thu 06:32:00 AM 57.9760 -16.3825 270° West  Level Estimated
Thu 06:33:00 AM 57.9763 -16.5988 270° West  Level Estimated
Thu 06:34:00 AM 57.9763 -16.8150 270° West  Level Estimated
Thu 06:35:00 AM 57.9760 -17.0312 270° West  Level Estimated
Thu 06:36:00 AM 57.9752 -17.2474 270° West  Level Estimated
Thu 06:37:00 AM 57.9741 -17.4636 270° West  Level Estimated
Thu 06:38:00 AM 57.9727 -17.6798 269° West  Level Estimated
Thu 06:39:00 AM 57.9708 -17.8960 269° West  Level Estimated
Thu 06:40:00 AM 57.9686 -18.1121 269° West  Level Estimated
Thu 06:41:00 AM 57.9660 -18.3282 269° West  Level Estimated
Thu 06:42:00 AM 57.9631 -18.5443 269° West  Level Estimated
Thu 06:43:00 AM 57.9598 -18.7604 268° West  Level Estimated
Thu 06:44:00 AM 57.9561 -18.9764 268° West  Level Estimated
Thu 06:45:00 AM 57.9521 -19.1923 268° West  Level Estimated
Thu 06:46:00 AM 57.9477 -19.4082 268° West  Level Estimated
Thu 06:47:00 AM 57.9429 -19.6241 268° West  Level Estimated
Thu 06:47:00 AM 59.0000 -20.0000 285° West 422 486 36,000  Level ETMS Enhanced Traffic Management System
Thu 06:48:00 AM 57.9378 -19.8399 268° West  Level Estimated
Thu 06:49:00 AM 57.9323 -20.0556 267° West  Level Estimated
Thu 06:50:00 AM 57.9264 -20.2713 267° West  Level Estimated
Thu 06:51:00 AM 57.9202 -20.4869 267° West  Level Estimated
Thu 06:52:00 AM 57.9136 -20.7024 267° West  Level Estimated
Thu 06:53:00 AM 57.9066 -20.9178 267° West  Level Estimated
Thu 06:54:00 AM 59.2095 -21.5483 284° West 422 486 36,000  Level FlightAware Transoceanic
Thu 06:55:00 AM 59.2380 -21.7710 284° West 422 486 36,000  Level FlightAware Transoceanic
Thu 06:56:00 AM 59.2660 -21.9941 284° West 422 486 36,000  Level FlightAware Transoceanic
Thu 06:57:00 AM 59.2937 -22.2175 284° West 422 486 36,000  Level FlightAware Transoceanic
Thu 06:58:00 AM 59.3209 -22.4413 283° West 422 486 36,000  Level FlightAware Transoceanic
Thu 06:59:00 AM 59.3478 -22.6655 283° West 422 486 36,000  Level FlightAware Transoceanic
Thu 07:00:00 AM 59.3744 -22.8900 283° West 422 486 36,000  Level FlightAware Transoceanic
Thu 07:01:00 AM 59.4005 -23.1148 283° West 422 486 36,000  Level FlightAware Transoceanic
Thu 07:02:00 AM 59.4262 -23.3400 283° West 422 486 36,000  Level FlightAware Transoceanic
Thu 07:03:00 AM 59.4515 -23.5656 282° West 422 486 36,000  Level FlightAware Transoceanic
Thu 07:04:00 AM 59.4765 -23.7915 282° West 422 486 36,000  Level FlightAware Transoceanic
Thu 07:05:00 AM 59.5011 -24.0177 282° West 422 486 36,000  Level FlightAware Transoceanic
Thu 07:06:00 AM 59.5252 -24.2442 282° West 422 486 36,000  Level FlightAware Transoceanic
Thu 07:07:00 AM 59.5490 -24.4711 282° West 422 486 36,000  Level FlightAware Transoceanic
Thu 07:08:00 AM 59.5724 -24.6982 281° West 422 486 36,000  Level FlightAware Transoceanic
Thu 07:09:00 AM 59.5954 -24.9257 281° West 422 486 36,000  Level FlightAware Transoceanic
Thu 07:10:00 AM 59.6180 -25.1535 281° West 422 486 36,000  Level FlightAware Transoceanic
Thu 07:11:00 AM 59.6402 -25.3816 281° West 422 486 36,000  Level FlightAware Transoceanic
Thu 07:12:00 AM 59.6620 -25.6100 281° West 422 486 36,000  Level FlightAware Transoceanic
Thu 07:13:00 AM 59.6834 -25.8387 280° West 422 486 36,000  Level FlightAware Transoceanic
Thu 07:14:00 AM 59.7045 -26.0677 280° West 422 486 36,000  Level FlightAware Transoceanic
Thu 07:15:00 AM 59.7251 -26.2970 280° West 422 486 36,000  Level FlightAware Transoceanic
Thu 07:16:00 AM 59.7453 -26.5266 280° West 422 486 36,000  Level FlightAware Transoceanic
Thu 07:17:00 AM 59.7651 -26.7564 280° West 422 486 36,000  Level FlightAware Transoceanic
Thu 07:18:00 AM 59.7845 -26.9865 279° West 422 486 36,000  Level FlightAware Transoceanic
Thu 07:19:00 AM 59.8035 -27.2168 279° West 422 486 36,000  Level FlightAware Transoceanic
Thu 07:20:00 AM 59.8221 -27.4475 279° West 422 486 36,000  Level FlightAware Transoceanic
Thu 07:21:00 AM 59.8403 -27.6784 279° West 422 486 36,000  Level FlightAware Transoceanic
Thu 07:22:00 AM 59.8581 -27.9095 279° West 422 486 36,000  Level FlightAware Transoceanic
Thu 07:23:00 AM 59.8755 -28.1409 278° West 422 486 36,000  Level FlightAware Transoceanic
Thu 07:24:00 AM 59.8925 -28.3725 278° West 422 486 36,000  Level FlightAware Transoceanic
Thu 07:25:00 AM 59.9091 -28.6043 278° West 422 486 36,000  Level FlightAware Transoceanic
Thu 07:26:00 AM 59.9253 -28.8364 278° West 422 486 36,000  Level FlightAware Transoceanic
Thu 07:27:00 AM 59.9410 -29.0687 278° West 422 486 36,000  Level FlightAware Transoceanic
Thu 07:28:00 AM 59.9564 -29.3012 277° West 422 486 36,000  Level FlightAware Transoceanic
Thu 07:29:00 AM 59.9713 -29.5339 277° West 422 486 36,000  Level FlightAware Transoceanic
Thu 07:30:00 AM 59.9859 -29.7669 277° West 422 486 36,000 16 Level FlightAware Transoceanic
Thu 07:31:00 AM 59.9997 -29.9945 277° West  Level FlightAware Approximate
Thu 07:32:00 AM 60.0130 -30.2222 277° West  Level FlightAware Approximate
Thu 07:33:00 AM 59.9867 -30.2165 263° West  Level FlightAware Approximate
Thu 07:34:00 AM 59.9723 -30.4438 263° West  Level FlightAware Approximate
Thu 07:35:00 AM 59.9576 -30.6710 263° West  Level FlightAware Approximate
Thu 07:36:00 AM 59.9424 -30.8980 263° West  Level FlightAware Approximate
Thu 07:37:00 AM 59.9269 -31.1247 262° West  Level FlightAware Approximate
Thu 07:38:00 AM 59.9109 -31.3512 262° West  Level FlightAware Approximate
Thu 07:39:00 AM 59.8946 -31.5776 262° West  Level FlightAware Approximate
Thu 07:40:00 AM 59.8779 -31.8036 262° West  Level FlightAware Approximate
Thu 07:41:00 AM 59.8608 -32.0295 262° West  Level FlightAware Approximate
Thu 07:42:00 AM 59.8433 -32.2551 261° West  Level FlightAware Approximate
Thu 07:43:00 AM 59.8255 -32.4805 261° West  Level FlightAware Approximate
Thu 07:44:00 AM 59.8072 -32.7057 261° West  Level FlightAware Approximate
Thu 07:45:00 AM 59.7886 -32.9305 261° West  Level FlightAware Approximate
Thu 07:46:00 AM 59.7696 -33.1552 261° West  Level FlightAware Approximate
Thu 07:47:00 AM 59.7502 -33.3796 260° West  Level FlightAware Approximate
Thu 07:48:00 AM 59.7304 -33.6037 260° West  Level FlightAware Approximate
Thu 07:49:00 AM 59.7102 -33.8275 260° West  Level FlightAware Approximate
Thu 07:50:00 AM 59.6897 -34.0511 260° West  Level FlightAware Approximate
Thu 07:51:00 AM 59.6688 -34.2744 260° West  Level FlightAware Approximate
Thu 07:52:00 AM 59.6475 -34.4974 259° West  Level FlightAware Approximate
Thu 07:53:00 AM 59.6258 -34.7202 259° West  Level FlightAware Approximate
Thu 07:54:00 AM 59.6037 -34.9426 259° West  Level FlightAware Approximate
Thu 07:55:00 AM 59.5813 -35.1648 259° West  Level FlightAware Approximate
Thu 07:56:00 AM 59.5585 -35.3866 259° West  Level FlightAware Approximate
Thu 07:57:00 AM 59.5353 -35.6082 258° West  Level FlightAware Approximate
Thu 07:58:00 AM 59.5118 -35.8295 258° West  Level FlightAware Approximate
Thu 07:59:00 AM 59.4884 -36.0506 258° West  Level FlightAware Approximate
Thu 08:00:00 AM 59.4646 -36.2714 258° West  Level FlightAware Approximate
Thu 08:01:00 AM 59.4404 -36.4920 258° West  Level FlightAware Approximate
Thu 08:02:00 AM 59.4158 -36.7122 258° West  Level FlightAware Approximate
Thu 08:03:00 AM 59.3909 -36.9320 258° West  Level FlightAware Approximate
Thu 08:04:00 AM 59.3656 -37.1516 257° West  Level FlightAware Approximate
Thu 08:05:00 AM 59.3400 -37.3708 257° West  Level FlightAware Approximate
Thu 08:06:00 AM 59.3139 -37.5897 257° West  Level FlightAware Approximate
Thu 08:07:00 AM 59.2875 -37.8082 257° West  Level FlightAware Approximate
Thu 08:08:00 AM 59.2608 -38.0265 257° West  Level FlightAware Approximate
Thu 08:09:00 AM 59.2336 -38.2443 256° West  Level FlightAware Approximate
Thu 08:10:00 AM 59.2061 -38.4618 256° West  Level FlightAware Approximate
Thu 08:11:00 AM 59.1783 -38.6790 256° West  Level FlightAware Approximate
Thu 08:12:00 AM 59.1501 -38.8958 256° West  Level FlightAware Approximate
Thu 08:13:00 AM 59.1215 -39.1123 256° West  Level FlightAware Approximate
Thu 08:14:00 AM 59.0926 -39.3283 255° West  Level FlightAware Approximate
Thu 08:15:00 AM 59.0633 -39.5441 255° West  Level FlightAware Approximate
Thu 08:16:00 AM 59.0336 -39.7594 255° West  Level FlightAware Approximate
Thu 08:17:00 AM 59.0036 -39.9744 255° West  Level FlightAware Approximate
Thu 08:18:00 AM 58.9708 -40.1876 253° West  Level FlightAware Approximate
Thu 08:19:00 AM 58.9373 -40.4002 253° West  Level FlightAware Approximate
Thu 08:20:00 AM 58.9035 -40.6124 253° West  Level FlightAware Approximate
Thu 08:21:00 AM 58.8693 -40.8242 253° West  Level FlightAware Approximate
Thu 08:22:00 AM 58.8348 -41.0356 253° West  Level FlightAware Approximate
Thu 08:23:00 AM 58.7999 -41.2466 252° West  Level FlightAware Approximate
Thu 08:24:00 AM 58.7647 -41.4571 252° West  Level FlightAware Approximate
Thu 08:25:00 AM 58.7292 -41.6672 252° West  Level FlightAware Approximate
Thu 08:26:00 AM 58.6933 -41.8769 252° West  Level FlightAware Approximate
Thu 08:27:00 AM 58.6571 -42.0861 252° West  Level FlightAware Approximate
Thu 08:28:00 AM 58.6205 -42.2949 251° West  Level FlightAware Approximate
Thu 08:29:00 AM 58.5836 -42.5033 251° West  Level FlightAware Approximate
Thu 08:30:00 AM 58.5463 -42.7112 251° West  Level FlightAware Approximate
Thu 08:31:00 AM 58.5088 -42.9187 251° West  Level FlightAware Approximate
Thu 08:32:00 AM 58.4716 -43.1263 251° West  Level FlightAware Approximate
Thu 08:33:00 AM 58.4344 -43.3336 251° West  Level FlightAware Approximate
Thu 08:34:00 AM 58.3969 -43.5405 251° West  Level FlightAware Approximate
Thu 08:35:00 AM 58.3591 -43.7469 251° West  Level FlightAware Approximate
Thu 08:36:00 AM 58.3209 -43.9528 251° West  Level FlightAware Approximate
Thu 08:37:00 AM 58.2823 -44.1584 250° West  Level FlightAware Approximate
Thu 08:38:00 AM 58.2435 -44.3634 250° West  Level FlightAware Approximate
Thu 08:39:00 AM 58.2042 -44.5680 250° West  Level FlightAware Approximate
Thu 08:40:00 AM 58.1646 -44.7721 250° West  Level FlightAware Approximate
Thu 08:41:00 AM 58.1247 -44.9757 250° West  Level FlightAware Approximate
Thu 08:42:00 AM 58.0844 -45.1789 250° West  Level FlightAware Approximate
Thu 08:43:00 AM 58.0438 -45.3816 249° West  Level FlightAware Approximate
Thu 08:44:00 AM 58.0029 -45.5839 249° West  Level FlightAware Approximate
Thu 08:45:00 AM 57.9617 -45.7857 249° West  Level FlightAware Approximate
Thu 08:46:00 AM 57.9202 -45.9870 249° West  Level FlightAware Approximate
Thu 08:47:00 AM 57.8783 -46.1879 249° West  Level FlightAware Approximate
Thu 08:48:00 AM 57.8361 -46.3883 249° West  Level FlightAware Approximate
Thu 08:49:00 AM 57.7936 -46.5882 248° West  Level FlightAware Approximate
Thu 08:50:00 AM 57.7508 -46.7877 248° West  Level FlightAware Approximate
Thu 08:51:00 AM 57.7077 -46.9866 248° West  Level FlightAware Approximate
Thu 08:52:00 AM 57.6643 -47.1852 248° West  Level FlightAware Approximate
Thu 08:53:00 AM 57.6204 -47.3831 248° West  Level FlightAware Approximate
Thu 08:54:00 AM 57.5762 -47.5805 247° West  Level FlightAware Approximate
Thu 08:55:00 AM 57.5317 -47.7775 247° West  Level FlightAware Approximate
Thu 08:56:00 AM 57.4869 -47.9739 247° West  Level FlightAware Approximate
Thu 08:57:00 AM 57.4418 -48.1699 247° West  Level FlightAware Approximate
Thu 08:58:00 AM 57.3963 -48.3654 247° West  Level FlightAware Approximate
Thu 08:59:00 AM 57.3506 -48.5604 247° West  Level FlightAware Approximate
Thu 09:00:00 AM 57.3046 -48.7550 246° West  Level FlightAware Approximate
Thu 09:01:00 AM 57.2582 -48.9490 246° West  Level FlightAware Approximate
Thu 09:02:00 AM 57.2116 -49.1426 246° West  Level FlightAware Approximate
Thu 09:03:00 AM 57.1647 -49.3356 246° West  Level FlightAware Approximate
Thu 09:04:00 AM 57.1175 -49.5282 246° West  Level FlightAware Approximate
Thu 09:05:00 AM 57.0700 -49.7203 246° West  Level FlightAware Approximate
Thu 09:06:00 AM 57.0221 -49.9118 245° Southwest  Level FlightAware Approximate
Thu 09:07:00 AM 56.9769 -50.1052 248° West  Level FlightAware Approximate
Thu 09:08:00 AM 56.9338 -50.3000 248° West  Level FlightAware Approximate
Thu 09:09:00 AM 56.8904 -50.4944 248° West  Level FlightAware Approximate
Thu 09:10:00 AM 56.8466 -50.6883 248° West  Level FlightAware Approximate
Thu 09:11:00 AM 56.8026 -50.8818 248° West  Level FlightAware Approximate
Thu 09:12:00 AM 56.7583 -51.0748 247° West  Level FlightAware Approximate
Thu 09:13:00 AM 56.7137 -51.2674 247° West  Level FlightAware Approximate
Thu 09:14:00 AM 56.6688 -51.4595 247° West  Level FlightAware Approximate
Thu 09:15:00 AM 56.6236 -51.6511 247° West  Level FlightAware Approximate
Thu 09:16:00 AM 56.5781 -51.8423 247° West  Level FlightAware Approximate
Thu 09:17:00 AM 56.5323 -52.0331 247° West  Level FlightAware Approximate
Thu 09:18:00 AM 56.4862 -52.2233 246° West  Level FlightAware Approximate
Thu 09:19:00 AM 56.4398 -52.4131 246° West  Level FlightAware Approximate
Thu 09:20:00 AM 56.3932 -52.6025 246° West  Level FlightAware Approximate
Thu 09:21:00 AM 56.3462 -52.7913 246° West  Level FlightAware Approximate
Thu 09:22:00 AM 56.2990 -52.9797 246° West  Level FlightAware Approximate
Thu 09:23:00 AM 56.2514 -53.1677 246° West  Level FlightAware Approximate
Thu 09:24:00 AM 56.2036 -53.3551 245° Southwest  Level FlightAware Approximate
Thu 09:25:00 AM 56.1555 -53.5421 245° Southwest  Level FlightAware Approximate
Thu 09:26:00 AM 56.1072 -53.7287 245° Southwest  Level FlightAware Approximate
Thu 09:27:00 AM 56.0585 -53.9148 245° Southwest  Level FlightAware Approximate
Thu 09:28:00 AM 56.0096 -54.1004 245° Southwest  Level FlightAware Approximate
Thu 09:29:00 AM 55.9604 -54.2855 245° Southwest  Level FlightAware Approximate
Thu 09:30:00 AM 55.8852 -54.4384 229° Southwest  Level Estimated
Thu 09:31:00 AM 55.8098 -54.5907 229° Southwest  Level Estimated
Thu 09:32:00 AM 55.7342 -54.7424 229° Southwest  Level Estimated
Thu 09:32:32 AM 55.7833 -56.0167 228° Southwest 430 495 38,000  Level Moncton Center
Thu 09:33:00 AM 55.6585 -54.8935 228° Southwest  Level Estimated
Thu 09:33:32 AM 55.7333 -56.2000 244° Southwest 420 483 38,000  Level Moncton Center
Thu 09:34:00 AM 55.5825 -55.0440 228° Southwest  Level Estimated
Thu 09:34:32 AM 55.7000 -56.4000 254° West 430 495 38,000  Level Moncton Center
Thu 09:35:00 AM 55.5064 -55.1940 228° Southwest  Level Estimated
Thu 09:35:32 AM 55.6500 -56.5833 244° Southwest 430 495 38,000  Level Moncton Center
Thu 09:36:00 AM 55.4300 -55.3434 228° Southwest  Level Estimated
Thu 09:36:32 AM 55.6000 -56.7667 244° Southwest 420 483 38,000  Level Moncton Center
Thu 09:37:00 AM 55.3535 -55.4922 228° Southwest  Level Estimated
Thu 09:37:32 AM 55.5667 -56.9500 252° West 420 483 38,000  Level Moncton Center
Thu 09:38:00 AM 55.2769 -55.6403 228° Southwest  Level Estimated
Thu 09:38:32 AM 55.4833 -57.1500 234° Southwest 420 483 38,000  Level Moncton Center
Thu 09:39:32 AM 55.4167 -57.3000 232° Southwest 430 495 38,000  Level Moncton Center
Thu 09:40:32 AM 55.3333 -57.4667 229° Southwest 430 495 38,000  Level Moncton Center
Thu 09:41:32 AM 55.2833 -57.6167 240° Southwest 430 495 38,000  Level Moncton Center
Thu 09:42:32 AM 55.1833 -57.7833 224° Southwest 420 483 38,000  Level Moncton Center
Thu 09:43:26 AM 55.1333 -57.9500 242° Southwest 420 483 38,000  Level Gander Center
Thu 09:44:00 AM 55.0833 -58.0333 224° Southwest 420 483 38,000  Level Gander Center
Thu 09:45:00 AM 55.0333 -58.2000 242° Southwest 420 483 38,000  Level Gander Center
Thu 09:45:32 AM 54.9833 -58.2833 224° Southwest 420 483 38,000  Level Moncton Center
Thu 09:46:32 AM 54.9000 -58.4333 226° Southwest 420 483 38,000  Level Moncton Center
Thu 09:47:32 AM 54.8333 -58.6000 235° Southwest 420 483 38,000  Level Moncton Center
Thu 09:48:32 AM 54.7667 -58.7500 232° Southwest 420 483 38,000  Level Moncton Center
Thu 09:49:32 AM 54.6833 -58.9000 226° Southwest 420 483 38,000  Level Moncton Center
Thu 09:50:32 AM 54.6167 -59.0667 235° Southwest 420 483 38,000  Level Moncton Center
Thu 09:51:32 AM 54.5333 -59.2167 226° Southwest 420 483 38,000  Level Moncton Center
Thu 09:52:32 AM 54.4667 -59.4000 238° Southwest 420 483 38,000  Level Moncton Center
Thu 09:53:32 AM 54.4000 -59.5167 226° Southwest 430 495 38,000  Level Moncton Center
Thu 09:54:32 AM 54.3000 -59.7000 227° Southwest 420 483 38,000  Level Moncton Center
Thu 09:55:32 AM 54.2500 -59.8500 240° Southwest 420 483 38,000  Level Moncton Center
Thu 09:56:32 AM 54.1667 -60.0000 227° Southwest 420 483 38,000  Level Moncton Center
Thu 09:57:32 AM 54.0833 -60.1167 219° Southwest 410 472 38,000  Level Moncton Center
Thu 09:58:32 AM 54.0000 -60.3000 232° Southwest 410 472 38,000  Level Moncton Center
Thu 09:59:32 AM 53.9333 -60.4167 226° Southwest 410 472 38,000  Level Moncton Center
Thu 10:00:33 AM 53.8667 -60.5667 233° Southwest 410 472 38,000  Level Moncton Center
Thu 10:01:33 AM 53.7833 -60.7167 227° Southwest 410 472 38,000  Level Moncton Center
Thu 10:02:33 AM 53.7000 -60.8667 227° Southwest 410 472 38,000  Level Moncton Center
Thu 10:03:33 AM 53.6333 -61.0167 233° Southwest 420 483 38,000  Level Moncton Center
Thu 10:04:32 AM 53.5500 -61.1667 227° Southwest 420 483 38,000  Level Moncton Center
Thu 10:05:33 AM 53.4667 -61.3000 224° Southwest 420 483 38,000  Level Moncton Center
Thu 10:06:32 AM 53.3833 -61.4333 224° Southwest 420 483 38,000  Level Moncton Center
Thu 10:07:33 AM 53.3000 -61.6000 230° Southwest 410 472 38,000  Level Moncton Center
Thu 10:08:33 AM 53.2500 -61.7167 234° Southwest 410 472 38,000  Level Moncton Center
Thu 10:09:32 AM 53.1667 -61.8667 227° Southwest 410 472 38,000  Level Moncton Center
Thu 10:10:33 AM 53.0833 -62.0000 224° Southwest 410 472 38,000  Level Moncton Center
Thu 10:11:32 AM 53.0000 -62.1500 227° Southwest 410 472 38,000  Level Moncton Center
Thu 10:12:32 AM 52.9167 -62.2833 224° Southwest 410 472 38,000  Level Moncton Center
Thu 10:13:33 AM 52.8500 -62.4333 234° Southwest 410 472 38,000  Level Moncton Center
Thu 10:14:33 AM 52.7667 -62.5667 224° Southwest 410 472 38,000  Level Moncton Center
Thu 10:15:33 AM 52.6833 -62.6833 220° Southwest 410 472 38,000  Level Moncton Center
Thu 10:16:33 AM 52.6167 -62.8333 234° Southwest 410 472 38,000  Level Moncton Center
Thu 10:17:33 AM 52.5333 -62.9667 224° Southwest 410 472 38,000  Level Moncton Center
Thu 10:18:33 AM 52.4667 -63.1000 231° Southwest 410 472 38,000  Level Moncton Center
Thu 10:19:33 AM 52.3833 -63.2500 228° Southwest 410 472 38,000  Level Moncton Center
Thu 10:20:33 AM 52.3000 -63.3500 216° Southwest 400 460 38,000  Level Moncton Center
Thu 10:21:33 AM 52.2167 -63.5000 228° Southwest 400 460 38,000  Level Moncton Center
Thu 10:22:33 AM 52.1500 -63.6333 231° Southwest 400 460 38,000  Level Moncton Center
Thu 10:23:33 AM 52.0667 -63.7667 225° Southwest 400 460 38,000  Level Moncton Center
Thu 10:24:33 AM 51.9833 -63.8833 221° Southwest 400 460 38,000  Level Moncton Center
Thu 10:25:33 AM 51.9167 -64.0167 231° Southwest 400 460 38,000  Level Moncton Center
Thu 10:26:33 AM 51.8333 -64.1500 225° Southwest 400 460 38,000  Level Moncton Center
Thu 10:27:33 AM 51.7500 -64.2833 225° Southwest 400 460 38,000  Level Moncton Center
Thu 10:28:33 AM 51.6667 -64.4167 225° Southwest 400 460 38,000  Level Moncton Center
Thu 10:29:33 AM 51.6000 -64.5333 227° Southwest 400 460 38,000  Level Moncton Center
Thu 10:30:33 AM 51.5167 -64.6667 225° Southwest 400 460 38,000  Level Moncton Center
Thu 10:31:33 AM 51.4333 -64.7667 217° Southwest 400 460 38,000  Level Moncton Center
Thu 10:32:33 AM 51.3667 -64.9000 231° Southwest 390 449 38,000  Level Moncton Center
Thu 10:33:33 AM 51.2833 -65.0333 225° Southwest 390 449 38,000  Level Moncton Center
Thu 10:34:33 AM 51.2167 -65.1500 228° Southwest 390 449 38,000  Level Moncton Center
Thu 10:35:33 AM 51.1333 -65.2833 225° Southwest 390 449 38,000  Level Moncton Center
Thu 10:36:09 AM 51.0833 -65.3000 192° South 390 449 38,000  Level Montreal Center
Thu 10:37:09 AM 51.0000 -65.4333 225° Southwest 390 449 38,000  Level Montreal Center
Thu 10:38:00 AM 50.9500 -65.5833 242° Southwest 390 449 38,000  Level Gander Center
Thu 10:38:33 AM 50.8833 -65.6500 212° Southwest 390 449 38,000  Level Moncton Center
Thu 10:39:09 AM 50.8333 -65.6833 203° Southwest 390 449 38,000  Level Montreal Center
Thu 10:40:09 AM 50.7667 -65.8000 228° Southwest 390 449 38,000  Level Montreal Center
Thu 10:41:09 AM 50.6833 -65.9333 225° Southwest 400 460 38,000  Level Montreal Center
Thu 10:42:09 AM 50.6000 -66.0500 222° Southwest 400 460 38,000  Level Montreal Center
Thu 10:43:09 AM 50.5333 -66.1500 224° Southwest 400 460 38,000  Level Montreal Center
Thu 10:44:09 AM 50.4333 -66.2833 220° Southwest 400 460 38,000  Level Montreal Center
Thu 10:45:09 AM 50.3667 -66.4000 228° Southwest 400 460 38,000  Level Montreal Center
Thu 10:46:09 AM 50.2667 -66.5167 217° Southwest 410 472 38,000  Level Montreal Center
Thu 10:47:33 AM 50.1500 -66.7167 228° Southwest 400 460 38,000  Level Moncton Center
Thu 10:48:33 AM 50.0833 -66.8500 232° Southwest 400 460 38,000  Level Moncton Center
Thu 10:49:33 AM 50.0000 -66.9833 226° Southwest 410 472 38,000  Level Moncton Center
Thu 10:50:33 AM 49.9167 -67.1000 222° Southwest 410 472 38,000  Level Moncton Center
Thu 10:51:33 AM 49.8333 -67.2333 226° Southwest 410 472 38,000  Level Moncton Center
Thu 10:52:33 AM 49.7333 -67.3500 217° Southwest 410 472 38,000  Level Moncton Center
Thu 10:53:33 AM 49.6667 -67.4500 224° Southwest 410 472 38,000  Level Moncton Center
Thu 10:54:33 AM 49.5833 -67.5667 222° Southwest 410 472 38,000  Level Moncton Center
Thu 10:55:33 AM 49.5000 -67.7000 226° Southwest 410 472 38,000  Level Moncton Center
Thu 10:56:33 AM 49.4167 -67.8167 222° Southwest 410 472 38,000  Level Moncton Center
Thu 10:57:33 AM 49.3333 -67.9500 226° Southwest 410 472 38,000  Level Moncton Center
Thu 10:58:33 AM 49.2500 -68.0333 213° Southwest 410 472 38,000  Level Moncton Center
Thu 10:59:33 AM 49.1667 -68.1667 226° Southwest 400 460 38,000  Level Moncton Center
Thu 11:00:33 AM 49.0833 -68.2500 213° Southwest 410 472 38,000  Level Moncton Center
Thu 11:01:33 AM 48.9667 -68.3833 217° Southwest 410 472 38,000  Level Moncton Center
Thu 11:02:33 AM 48.8833 -68.4667 213° Southwest 410 472 38,000  Level Moncton Center
Thu 11:03:33 AM 48.8000 -68.5667 218° Southwest 410 472 38,000  Level Moncton Center
Thu 11:04:33 AM 48.7000 -68.6667 213° Southwest 400 460 38,000  Level Moncton Center
Thu 11:05:41 AM 48.6000 -68.7167 198° South 400 460 38,000  Level Montreal Center
Thu 11:06:41 AM 48.5000 -68.8000 209° Southwest 390 449 38,000  Level Montreal Center
Thu 11:11:59 AM 48.0220 -69.3330 209° Southwest 38,000  Level FlightAware ADS-B
Thu 11:12:44 AM 47.9550 -69.3990 213° Southwest 395 455 38,000  Level FlightAware ADS-B
Thu 11:13:05 AM 47.9174 -69.4355 213° Southwest 397 457 38,000  Level FlightAware ADS-B
Thu 11:13:37 AM 47.8717 -69.4798 213° Southwest 397 457 38,000  Level FlightAware ADS-B
Thu 11:14:07 AM 47.8206 -69.5294 213° Southwest 397 457 38,000  Level FlightAware ADS-B
Thu 11:14:46 AM 47.7617 -69.5866 213° Southwest 398 458 38,000  Level FlightAware ADS-B
Thu 11:15:38 AM 47.6822 -69.6652 214° Southwest 395 455 38,000  Level FlightAware ADS-B
Thu 11:16:09 AM 47.6352 -69.7124 214° Southwest 395 455 38,000  Level FlightAware ADS-B
Thu 11:17:04 AM 47.5519 -69.7953 214° Southwest 395 455 38,000  Level FlightAware ADS-B
Thu 11:17:43 AM 47.4972 -69.8495 214° Southwest 395 455 38,000  Level FlightAware ADS-B
Thu 11:18:19 AM 47.4381 -69.9079 214° Southwest 396 456 38,000  Level FlightAware ADS-B
Thu 11:18:50 AM 47.3904 -69.9549 214° Southwest 396 456 38,000  Level FlightAware ADS-B
Thu 11:19:34 AM 47.3250 -70.0193 214° Southwest 396 456 38,000  Level FlightAware ADS-B
Thu 11:20:12 AM 47.2666 -70.0766 214° Southwest 397 457 38,000  Level FlightAware ADS-B
Thu 11:20:47 AM 47.2134 -70.1288 214° Southwest 398 458 38,000  Level FlightAware ADS-B
Thu 11:21:27 AM 47.1540 -70.1870 214° Southwest 400 460 38,000  Level FlightAware ADS-B
Thu 11:22:04 AM 47.0960 -70.2437 214° Southwest 402 463 38,000  Level FlightAware ADS-B
Thu 11:22:34 AM 47.0491 -70.2894 214° Southwest 401 461 38,000  Level FlightAware ADS-B
Thu 11:23:17 AM 46.9822 -70.3542 213° Southwest 397 457 38,000  Level FlightAware ADS-B
Thu 11:23:56 AM 46.9235 -70.4112 214° Southwest 399 459 38,000  Level FlightAware ADS-B
Thu 11:24:30 AM 46.8749 -70.4583 213° Southwest 400 460 38,000  Level FlightAware ADS-B
Thu 11:25:00 AM 46.8253 -70.5061 213° Southwest 400 460 38,000  Level FlightAware ADS-B
Thu 11:25:43 AM 46.7581 -70.5707 213° Southwest 401 461 38,000  Level FlightAware ADS-B
Thu 11:26:22 AM 46.6977 -70.6287 213° Southwest 399 459 38,000  Level FlightAware ADS-B
Thu 11:27:05 AM 46.6320 -70.6917 213° Southwest 399 459 38,000  Level FlightAware ADS-B
Thu 11:27:45 AM 46.5712 -70.7497 213° Southwest 400 460 38,000  Level FlightAware ADS-B
Thu 11:28:18 AM 46.5207 -70.7978 213° Southwest 400 460 38,000  Level FlightAware ADS-B
Thu 11:28:48 AM 46.4740 -70.8422 213° Southwest 401 461 38,000  Level FlightAware ADS-B
Thu 11:29:31 AM 46.4061 -70.9066 213° Southwest 402 463 38,000  Level FlightAware ADS-B
Thu 11:30:01 AM 46.3628 -70.9476 213° Southwest 404 465 38,000  Level FlightAware ADS-B
Thu 11:30:44 AM 46.2935 -71.0131 213° Southwest 405 466 38,000  Level FlightAware ADS-B
Thu 11:31:32 AM 46.2176 -71.0845 213° Southwest 406 467 38,000  Level FlightAware ADS-B
Thu 11:32:06 AM 46.1646 -71.1341 213° Southwest 408 470 38,000  Level FlightAware ADS-B
Thu 11:33:03 AM 46.0740 -71.2180 213° Southwest 410 472 38,000  Level FlightAware ADS-B
Thu 11:33:12 AM 46.0595 -71.2325 215° Southwest 410 472 38,000  Level FlightAware ADS-B
Thu 11:33:44 AM 46.0092 -71.2792 213° Southwest 411 473 38,000  Level FlightAware ADS-B
Thu 11:34:16 AM 45.9680 -71.3170 213° Southwest 412 474 38,000  Level FlightAware ADS-B
Thu 11:34:24 AM 45.9439 -71.3396 213° Southwest 412 474 38,000  Level FlightAware ADS-B
Thu 11:34:58 AM 45.8906 -71.3892 213° Southwest 413 475 38,000  Level FlightAware ADS-B
Thu 11:35:38 AM 45.8320 -71.4431 213° Southwest 414 476 38,000  Level FlightAware ADS-B
Thu 11:36:08 AM 45.7770 -71.4937 213° Southwest 415 478 38,000  Level FlightAware ADS-B
Thu 11:36:49 AM 45.7172 -71.5488 213° Southwest 418 481 38,000  Level FlightAware ADS-B
Thu 11:37:23 AM 45.6649 -71.5965 213° Southwest 418 481 38,000  Level FlightAware ADS-B
Thu 11:38:08 AM 45.5820 -71.6720 213° Southwest 419 482 38,000  Level FlightAware ADS-B
Thu 11:38:31 AM 45.5460 -71.7050 213° Southwest 419 482 38,000  Level FlightAware ADS-B
Thu 11:39:25 AM 45.4600 -71.7830 212° Southwest 419 482 38,000  Level FlightAware ADS-B
Thu 11:40:08 AM 45.3900 -71.8460 212° Southwest 419 482 38,000  Level FlightAware ADS-B
Thu 11:40:45 AM 45.3280 -71.9020 212° Southwest 419 482 38,000  Level FlightAware ADS-B
Thu 11:41:45 AM 45.2290 -71.9910 212° Southwest 418 481 38,000  Level FlightAware ADS-B
Thu 11:42:23 AM 45.1710 -72.0420 212° Southwest 420 483 38,000  Level FlightAware ADS-B
Thu 11:43:08 AM 45.0910 -72.1070 210° Southwest 425 489 38,000  Level FlightAware ADS-B
Thu 11:43:43 AM 45.0310 -72.1540 209° Southwest 425 489 38,000  Level FlightAware ADS-B
Thu 11:44:18 AM 46.1730 -71.1260 32° Northeast 408 470 38,000  Level FlightAware ADS-B
Thu 11:45:06 AM 44.8870 -72.2630 212° Southwest 423 487 38,000  Level FlightAware ADS-B
Thu 11:45:38 AM 44.8310 -72.3060 209° Southwest 422 486 38,000  Level FlightAware ADS-B
Thu 11:45:43 AM 46.1580 -71.1410 31° Northeast 409 471 38,000  Level FlightAware ADS-B
Thu 11:46:17 AM 44.7640 -72.3570 212° Southwest 421 484 38,000  Level FlightAware ADS-B
Thu 11:46:38 AM 46.1500 -71.1480 31° Northeast 409 471 38,000  Level FlightAware ADS-B
Thu 11:46:57 AM 44.6948 -72.4095 212° Southwest 420 483 38,000  Level FlightAware ADS-B (EPKK / KRK)
Thu 11:47:32 AM 44.6370 -72.4530 208° Southwest 419 482 38,000  Level FlightAware ADS-B
Thu 11:47:42 AM 46.1390 -71.1580 31° Northeast 409 471 38,000  Level FlightAware ADS-B
Thu 11:48:33 AM 44.5317 -72.5331 212° Southwest 417 480 38,000  Level FlightAware ADS-B (EPKK / KRK)
Thu 11:49:01 AM 46.1280 -71.1680 31° Northeast 409 471 38,000  Level FlightAware ADS-B
Thu 11:49:16 AM 44.4581 -72.5886 211° Southwest 418 481 38,000  Level FlightAware ADS-B (EPKK / KRK)
Thu 11:49:37 AM 46.1200 -71.1760 30° Northeast 410 472 38,000  Level FlightAware ADS-B
Thu 11:49:47 AM 44.4057 -72.6277 211° Southwest 418 481 38,000  Level FlightAware ADS-B (EPKK / KRK)
Thu 11:50:26 AM 44.3410 -72.6760 208° Southwest 417 480 38,000  Level FlightAware ADS-B
Thu 11:51:08 AM 44.2720 -72.7280 208° Southwest 417 480 38,000  Level FlightAware ADS-B
Thu 11:51:41 AM 44.2120 -72.7720 208° Southwest 418 481 38,000 -75 Level FlightAware ADS-B
Thu 11:52:28 AM 44.1320 -72.8320 208° Southwest 416 479 37,900 -735 Descending FlightAware ADS-B
Thu 11:53:19 AM 44.0470 -72.8940 208° Southwest 415 478 36,800 60 Descending FlightAware ADS-B
Thu 11:54:08 AM 45.0990 -72.1020 28° Northeast 426 490 38,000 857 Climbing FlightAware ADS-B
Thu 11:54:43 AM 45.0920 -72.1070 207° Southwest 426 490 38,000  Level FlightAware ADS-B
Thu 11:55:19 AM 45.0780 -72.1180 209° Southwest 426 490 38,000 -3,395 Level FlightAware ADS-B
Thu 11:55:59 AM 43.7760 -73.0920 208° Southwest 410 472 33,700 -3,722 Descending FlightAware ADS-B
Thu 11:56:38 AM 43.7090 -73.1410 208° Southwest 407 468 33,100 -917 Descending FlightAware ADS-B
Thu 11:57:11 AM 43.6550 -73.1800 208° Southwest 405 466 32,600 -964 Descending FlightAware ADS-B
Thu 11:57:34 AM 43.6180 -73.2070 208° Southwest 403 464 32,200 -1,015 Descending FlightAware ADS-B
Thu 11:58:16 AM 43.5470 -73.2580 208° Southwest 400 460 31,500 -892 Descending FlightAware ADS-B
Thu 11:58:48 AM 43.4950 -73.2950 207° Southwest 396 456 31,100 -700 Descending FlightAware ADS-B
Thu 11:59:16 AM 43.4510 -73.3270 208° Southwest 392 451 30,800 -686 Descending FlightAware ADS-B
Thu 11:59:58 AM 43.3840 -73.3750 208° Southwest 386 444 30,300 -552 Descending FlightAware ADS-B
Thu 12:00:43 PM 43.3140 -73.4250 207° Southwest 378 435 30,000 3,736 Descending FlightAware ADS-B
Thu 12:00:51 PM 43.7660 -73.1000 27° Northeast 411 473 33,600 5,023 Climbing FlightAware ADS-B
Thu 12:01:26 PM 43.7570 -73.1060 206° Southwest 410 472 33,600 -140 Level FlightAware ADS-B
Thu 12:02:17 PM 43.7460 -73.1140 208° Southwest 410 472 33,400 -330 Descending FlightAware ADS-B
Thu 12:02:57 PM 43.7100 -73.1400 208° Southwest 408 470 33,100 -4,879 Descending FlightAware ADS-B
Thu 12:03:48 PM 43.0000 -73.6470 208° Southwest 397 457 26,000 -791 Descending FlightAware ADS-B
Thu 12:04:28 PM 43.5890 -73.2280 27° Northeast 404 465 31,900 -1,823 Climbing FlightAware ADS-B
Thu 12:05:07 PM 42.8740 -73.7350 207° Southwest 374 430 23,600 -80 Descending FlightAware ADS-B
Thu 12:05:43 PM 43.5750 -73.2380 27° Northeast 403 464 31,800 -1,500 Climbing FlightAware ADS-B
Thu 12:06:23 PM 42.7560 -73.8160 207° Southwest 389 448 21,700 -8,919 Descending FlightAware ADS-B
Thu 12:06:57 PM 42.7010 -73.8440 201° Southwest 385 443 20,800 -1,622 Descending FlightAware ADS-B
Thu 12:07:37 PM 42.6330 -73.8740 198° South 375 432 19,700 -1,543 Descending FlightAware ADS-B
Thu 12:08:07 PM 42.5830 -73.8960 198° South 368 423 19,000 -1,500 Descending FlightAware ADS-B
Thu 12:08:37 PM 42.5340 -73.9170 198° South 364 419 18,200 -1,629 Descending FlightAware ADS-B
Thu 12:09:17 PM 42.4720 -73.9450 198° South 356 410 17,100 -1,575 Descending FlightAware ADS-B
Thu 12:09:57 PM 42.4120 -73.9710 198° South 347 399 16,100 -1,099 Descending FlightAware ADS-B
Thu 12:10:28 PM 42.3630 -73.9920 198° South 339 390 15,800 -327 Descending FlightAware ADS-B
Thu 12:10:52 PM 42.3300 -74.0070 199° South 318 366 15,800  Level FlightAware ADS-B
Thu 12:12:35 PM 42.1950 -74.0660 198° South 285 328 15,800  Level FlightAware ADS-B
Thu 12:13:20 PM 42.1380 -74.0900 197° South 285 328 15,800 -132 Level FlightAware ADS-B
Thu 12:14:06 PM 42.0810 -74.1150 198° South 289 333 15,600 -615 Descending FlightAware ADS-B
Thu 12:14:38 PM 42.0390 -74.1330 198° South 291 335 15,000 -1,040 Descending FlightAware ADS-B
Thu 12:15:21 PM 41.9840 -74.1570 198° South 289 333 14,300 -989 Descending FlightAware ADS-B
Thu 12:16:09 PM 41.9240 -74.1820 197° South 285 328 13,500 -1,000 Descending FlightAware ADS-B
Thu 12:16:45 PM 41.8780 -74.2020 198° South 283 326 12,900 -1,000 Descending FlightAware ADS-B
Thu 12:17:27 PM 41.8260 -74.2240 197° South 278 320 12,200 -963 Descending FlightAware ADS-B
Thu 12:18:06 PM 41.7790 -74.2440 198° South 276 318 11,600 -930 Descending FlightAware ADS-B
Thu 12:18:38 PM 41.7400 -74.2610 198° South 272 313 11,100 -1,026 Descending FlightAware ADS-B
Thu 12:19:22 PM 41.6880 -74.2830 198° South 271 312 10,300 -1,026 Descending FlightAware ADS-B
Thu 12:19:54 PM 41.6500 -74.3000 198° South 265 305 9,800 -923 Descending FlightAware ADS-B
Thu 12:20:27 PM 41.6110 -74.3160 197° South 262 302 9,300 -947 Descending FlightAware ADS-B
Thu 12:21:10 PM 41.5630 -74.3360 197° South 260 299 8,600 -1,000 Descending FlightAware ADS-B
Thu 12:21:51 PM 41.5160 -74.3560 198° South 255 293 7,900 -1,026 Descending FlightAware ADS-B
Thu 12:22:26 PM 41.4760 -74.3730 198° South 253 291 7,300 -833 Descending FlightAware ADS-B
Thu 12:23:03 PM 41.4340 -74.3910 198° South 247 284 6,900 -308 Descending FlightAware ADS-B
Thu 12:23:44 PM 41.3890 -74.4100 198° South 250 288 6,900  Level FlightAware ADS-B
Thu 12:24:08 PM 41.3670 -74.4190 197° South 251 289 6,900  Level FlightAware ADS-B
Thu 12:24:43 PM 41.3250 -74.4380 199° South 232 267 6,900 -222 Level FlightAware ADS-B
Thu 12:25:29 PM 41.2820 -74.4560 197° South 201 231 6,600 -675 Descending FlightAware ADS-B
Thu 12:26:03 PM 41.2520 -74.4690 198° South 198 228 6,000 -553 Descending FlightAware ADS-B
Thu 12:26:45 PM 41.2170 -74.4830 197° South 197 227 5,900 -72 Descending FlightAware ADS-B
Thu 12:27:26 PM 41.1810 -74.4990 198° South 198 228 5,900  Level FlightAware ADS-B
Thu 12:28:08 PM 41.1440 -74.5140 197° South 196 226 5,900  Level FlightAware ADS-B
Thu 12:28:51 PM 41.1120 -74.5320 203° Southwest 164 189 5,900  Level FlightAware ADS-B
Thu 12:29:23 PM 41.0880 -74.5440 201° Southwest 167 192 5,900  Level FlightAware ADS-B
Thu 12:29:39 PM 41.0780 -74.5480 197° South 168 193 5,900  Level FlightAware ADS-B
Thu 12:30:23 PM 41.0520 -74.5150 136° Southeast 227 261 5,900 -74 Level FlightAware ADS-B
Thu 12:31:00 PM 41.0700 -74.4670 64° Northeast 235 270 5,800 -529 Descending FlightAware ADS-B
Thu 12:31:31 PM 41.0920 -74.4340 48° Northeast 234 269 5,300 -730 Descending FlightAware ADS-B
Thu 12:32:14 PM 41.1230 -74.3870 49° Northeast 234 269 4,900 -429 Descending FlightAware ADS-B
Thu 12:32:27 PM 41.1260 -74.3700 77° East 223 257 4,900  Level FlightAware ADS-B
Thu 12:33:15 PM 41.1100 -74.3130 110° East 204 235 4,900  Level FlightAware ADS-B
Thu 12:33:45 PM 41.0980 -74.2790 115° Southeast 202 232 4,900  Level FlightAware ADS-B
Thu 12:34:26 PM 41.0780 -74.2370 122° Southeast 188 216 4,900 -83 Level FlightAware ADS-B
Thu 12:34:57 PM 41.0580 -74.2150 140° Southeast 179 206 4,800 -696 Descending FlightAware ADS-B
Thu 12:35:35 PM 41.0310 -74.1920 147° Southeast 176 203 4,100 -761 Descending FlightAware ADS-B
Thu 12:36:08 PM 41.0092 -74.1729 147° Southeast 157 181 3,900 -222 Descending FlightAware ADS-B
Thu 12:36:29 PM 40.9973 -74.1624 146° Southeast 153 176 3,900  Level FlightAware ADS-B
Thu 12:36:45 PM 40.9879 -74.1538 145° Southeast 154 177 3,900 -316 Level FlightAware ADS-B
Thu 12:37:07 PM 40.9751 -74.1421 145° Southeast 154 177 3,700 -652 Descending FlightAware ADS-B
Thu 12:37:31 PM 40.9611 -74.1299 147° Southeast 154 177 3,400 -923 Descending FlightAware ADS-B
Thu 12:37:46 PM 40.9524 -74.1219 145° Southeast 150 173 3,100 -698 Descending FlightAware ADS-B
Thu 12:38:14 PM 40.9362 -74.1072 146° Southeast 153 176 2,900 -267 Descending FlightAware ADS-B
Thu 12:38:31 PM 40.9266 -74.0981 144° Southeast 152 175 2,900  Level FlightAware ADS-B
Thu 12:38:46 PM 40.9174 -74.0899 146° Southeast 155 178 2,900  Level FlightAware ADS-B
Thu 12:39:02 PM 40.9085 -74.0818 145° Southeast 153 176 2,900  Level FlightAware ADS-B
Thu 12:39:08 PM 40.9045 -74.0789 151° Southeast 149 171 2,900  Level FlightAware ADS-B
Thu 12:39:12 PM 40.9023 -74.0778 159° South 147 169 2,900  Level FlightAware ADS-B
Thu 12:39:15 PM 40.9000 -74.0767 160° South 146 168 2,900  Level FlightAware ADS-B
Thu 12:39:20 PM 40.8969 -74.0755 164° South 144 166 2,900  Level FlightAware ADS-B
Thu 12:39:37 PM 40.8861 -74.0721 167° South 144 166 2,900  Level FlightAware ADS-B
Thu 12:39:59 PM 40.8716 -74.0680 168° South 143 165 2,900  Level FlightAware ADS-B
Thu 12:40:04 PM 40.8684 -74.0675 173° South 141 162 2,900  Level FlightAware ADS-B
Thu 12:40:07 PM 40.8666 -74.0674 178° South 138 159 2,900  Level FlightAware ADS-B
Thu 12:40:11 PM 40.8642 -74.0676 184° South 138 159 2,900  Level FlightAware ADS-B
Thu 12:40:16 PM 40.8611 -74.0683 190° South 136 157 2,900  Level FlightAware ADS-B
Thu 12:40:24 PM 40.8559 -74.0702 195° South 134 154 2,900  Level FlightAware ADS-B
Thu 12:40:48 PM 40.8425 -74.0784 205° Southwest 134 154 2,900  Level FlightAware ADS-B
Thu 12:41:05 PM 40.8332 -74.0849 208° Southwest 133 153 2,900  Level FlightAware ADS-B
Thu 12:41:22 PM 40.8242 -74.0910 207° Southwest 131 151 2,900  Level FlightAware ADS-B
Thu 12:41:37 PM 40.8159 -74.0966 207° Southwest 134 154 2,900 -400 Level FlightAware ADS-B
Thu 12:41:52 PM 40.8073 -74.1023 207° Southwest 138 159 2,700 -857 Descending FlightAware ADS-B
Thu 12:42:05 PM 40.7998 -74.1073 207° Southwest 139 160 2,500 -818 Descending FlightAware ADS-B
Thu 12:42:36 PM 40.7821 -74.1190 207° Southwest 140 161 2,100 -714 Descending FlightAware ADS-B
Thu 12:42:47 PM 40.7758 -74.1232 207° Southwest 145 167 2,000 -828 Descending FlightAware ADS-B
Thu 12:43:05 PM 40.7651 -74.1302 206° Southwest 142 163 1,700 -909 Descending FlightAware ADS-B
Thu 12:43:20 PM 40.7562 -74.1361 207° Southwest 142 163 1,500 -811 Descending FlightAware ADS-B
Thu 12:43:42 PM 40.7433 -74.1449 207° Southwest 145 167 1,200 -800 Descending FlightAware ADS-B
Thu 12:43:50 PM 40.7385 -74.1480 206° Southwest 146 168 1,100 -706 Descending FlightAware ADS-B
Thu 12:43:59 PM 40.7332 -74.1514 206° Southwest 146 168 1,000 -692 Descending FlightAware ADS-B
Thu 12:44:16 PM 40.7234 -74.1579 207° Southwest 129 148 800 -706 Descending FlightAware ADS-B
Thu 12:44:33 PM 40.7150 -74.1636 207° Southwest 125 144 600 -321 Descending FlightAware ADS-B
Thu 12:45:12 PM 40.6980 -74.1750 207° Southwest 122 140 500 -154 Descending FlightAware ADS-B

Login

Don't have an account? Register now (free) for customized features, flight alerts, and more!